sensor_id;sensor_type;location;lat;lon;timestamp;pressure;altitude;pressure_sealevel;temperature;humidity
6208;BME280;3137;51.550;7.060;2023-03-01T00:02:02;102663.06;;;-1.18;69.36
6208;BME280;3137;51.550;7.060;2023-03-01T00:04:28;102666.56;;;-1.19;70.35
6208;BME280;3137;51.550;7.060;2023-03-01T00:06:55;102665.66;;;-1.22;69.98
6208;BME280;3137;51.550;7.060;2023-03-01T00:09:21;102659.56;;;-1.18;69.53
6208;BME280;3137;51.550;7.060;2023-03-01T00:11:47;102657.81;;;-1.19;69.11
6208;BME280;3137;51.550;7.060;2023-03-01T00:14:14;102657.78;;;-1.21;69.82
6208;BME280;3137;51.550;7.060;2023-03-01T00:16:43;102659.53;;;-1.24;69.63
6208;BME280;3137;51.550;7.060;2023-03-01T00:19:15;102661.28;;;-1.23;69.57
6208;BME280;3137;51.550;7.060;2023-03-01T00:21:42;102661.22;;;-1.28;69.80
6208;BME280;3137;51.550;7.060;2023-03-01T00:24:09;102654.19;;;-1.32;69.37
6208;BME280;3137;51.550;7.060;2023-03-01T00:26:36;102648.00;;;-1.39;69.22
6208;BME280;3137;51.550;7.060;2023-03-01T00:29:03;102650.59;;;-1.42;69.64
6208;BME280;3137;51.550;7.060;2023-03-01T00:31:31;102644.44;;;-1.44;69.82
6208;BME280;3137;51.550;7.060;2023-03-01T00:34:00;102642.72;;;-1.43;70.09
6208;BME280;3137;51.550;7.060;2023-03-01T00:36:30;102647.06;;;-1.45;69.82
6208;BME280;3137;51.550;7.060;2023-03-01T00:38:58;102640.88;;;-1.49;69.59
6208;BME280;3137;51.550;7.060;2023-03-01T00:41:25;102642.66;;;-1.50;69.63
6208;BME280;3137;51.550;7.060;2023-03-01T00:43:53;102640.00;;;-1.53;70.41
6208;BME280;3137;51.550;7.060;2023-03-01T00:46:22;102641.75;;;-1.53;70.41
6208;BME280;3137;51.550;7.060;2023-03-01T00:48:49;102633.78;;;-1.59;71.01
6208;BME280;3137;51.550;7.060;2023-03-01T00:51:18;102629.41;;;-1.59;70.15
6208;BME280;3137;51.550;7.060;2023-03-01T00:53:46;102626.78;;;-1.62;70.51
6208;BME280;3137;51.550;7.060;2023-03-01T00:56:14;102622.38;;;-1.63;70.90
6208;BME280;3137;51.550;7.060;2023-03-01T00:58:41;102617.97;;;-1.67;70.35
6208;BME280;3137;51.550;7.060;2023-03-01T01:01:15;102619.69;;;-1.69;70.41
6208;BME280;3137;51.550;7.060;2023-03-01T01:03:50;102626.66;;;-1.73;71.02
6208;BME280;3137;51.550;7.060;2023-03-01T01:06:22;102616.97;;;-1.78;70.88
6208;BME280;3137;51.550;7.060;2023-03-01T01:08:50;102629.22;;;-1.82;70.99
6208;BME280;3137;51.550;7.060;2023-03-01T01:11:18;102625.69;;;-1.82;71.54
6208;BME280;3137;51.550;7.060;2023-03-01T01:13:46;102620.41;;;-1.85;71.45
6208;BME280;3137;51.550;7.060;2023-03-01T01:16:18;102616.84;;;-1.90;71.43
6208;BME280;3137;51.550;7.060;2023-03-01T01:18:45;102613.28;;;-1.97;71.10
6208;BME280;3137;51.550;7.060;2023-03-01T01:21:14;102609.75;;;-2.01;71.56
6208;BME280;3137;51.550;7.060;2023-03-01T01:23:41;102608.84;;;-2.03;72.14
6208;BME280;3137;51.550;7.060;2023-03-01T01:28:42;102602.72;;;-2.02;72.73
6208;BME280;3137;51.550;7.060;2023-03-01T01:31:09;102595.69;;;-2.04;72.04
6208;BME280;3137;51.550;7.060;2023-03-01T01:33:36;102593.97;;;-2.02;72.65
6208;BME280;3137;51.550;7.060;2023-03-01T01:36:07;102590.50;;;-2.00;71.84
6208;BME280;3137;51.550;7.060;2023-03-01T01:38:35;102585.25;;;-2.00;72.36
6208;BME280;3137;51.550;7.060;2023-03-01T01:41:01;102575.69;;;-1.93;72.58
6208;BME280;3137;51.550;7.060;2023-03-01T01:43:33;102578.34;;;-1.91;72.12
6208;BME280;3137;51.550;7.060;2023-03-01T01:46:03;102581.78;;;-1.97;71.84
6208;BME280;3137;51.550;7.060;2023-03-01T01:48:43;102580.81;;;-2.07;72.69
6208;BME280;3137;51.550;7.060;2023-03-01T01:51:14;102594.84;;;-2.03;72.34
6208;BME280;3137;51.550;7.060;2023-03-01T01:53:44;102588.72;;;-2.05;72.41
6208;BME280;3137;51.550;7.060;2023-03-01T01:56:14;102586.25;;;-1.88;72.39
6208;BME280;3137;51.550;7.060;2023-03-01T01:58:43;102580.16;;;-1.86;72.35
6208;BME280;3137;51.550;7.060;2023-03-01T02:01:10;102587.16;;;-1.86;72.50
6208;BME280;3137;51.550;7.060;2023-03-01T02:03:39;102581.91;;;-1.85;72.51
6208;BME280;3137;51.550;7.060;2023-03-01T02:06:17;102581.91;;;-1.86;72.59
6208;BME280;3137;51.550;7.060;2023-03-01T02:08:48;102568.81;;;-1.82;72.16
6208;BME280;3137;51.550;7.060;2023-03-01T02:11:16;102573.22;;;-1.78;72.07
6208;BME280;3137;51.550;7.060;2023-03-01T02:13:44;102562.63;;;-1.87;71.82
6208;BME280;3137;51.550;7.060;2023-03-01T02:16:14;102562.56;;;-1.93;72.45
6208;BME280;3137;51.550;7.060;2023-03-01T02:18:42;102565.16;;;-1.98;72.67
6208;BME280;3137;51.550;7.060;2023-03-01T02:23:50;102547.50;;;-2.11;72.78
6208;BME280;3137;51.550;7.060;2023-03-01T02:28:44;102564.97;;;-2.15;72.58
6208;BME280;3137;51.550;7.060;2023-03-01T02:31:14;102554.47;;;-2.18;72.34
6208;BME280;3137;51.550;7.060;2023-03-01T02:34:01;102552.63;;;-2.25;73.13
6208;BME280;3137;51.550;7.060;2023-03-01T02:36:35;102557.81;;;-2.31;73.23
6208;BME280;3137;51.550;7.060;2023-03-01T02:39:05;102556.84;;;-2.39;72.15
6208;BME280;3137;51.550;7.060;2023-03-01T02:41:35;102564.59;;;-2.47;73.12
6208;BME280;3137;51.550;7.060;2023-03-01T02:44:03;102562.94;;;-2.42;72.79
6208;BME280;3137;51.550;7.060;2023-03-01T02:46:30;102560.28;;;-2.43;73.86
6208;BME280;3137;51.550;7.060;2023-03-01T02:48:58;102571.63;;;-2.46;73.54
6208;BME280;3137;51.550;7.060;2023-03-01T02:54:26;102571.72;;;-2.38;73.76
6208;BME280;3137;51.550;7.060;2023-03-01T02:56:55;102556.94;;;-2.31;74.21
6208;BME280;3137;51.550;7.060;2023-03-01T02:59:27;102571.72;;;-2.38;74.29
6208;BME280;3137;51.550;7.060;2023-03-01T03:01:55;102567.19;;;-2.50;74.62
6208;BME280;3137;51.550;7.060;2023-03-01T03:04:22;102563.72;;;-2.49;74.69
6208;BME280;3137;51.550;7.060;2023-03-01T03:06:50;102566.38;;;-2.46;73.35
6208;BME280;3137;51.550;7.060;2023-03-01T03:09:17;102566.38;;;-2.46;73.82
6208;BME280;3137;51.550;7.060;2023-03-01T03:11:45;102564.63;;;-2.45;74.47
6208;BME280;3137;51.550;7.060;2023-03-01T03:14:14;102560.22;;;-2.48;73.97
6208;BME280;3137;51.550;7.060;2023-03-01T03:16:46;102563.72;;;-2.50;74.11
6208;BME280;3137;51.550;7.060;2023-03-01T03:19:13;102561.03;;;-2.55;73.56
6208;BME280;3137;51.550;7.060;2023-03-01T03:21:40;102553.13;;;-2.57;73.16
6208;BME280;3137;51.550;7.060;2023-03-01T03:24:06;102546.94;;;-2.63;73.86
6208;BME280;3137;51.550;7.060;2023-03-01T03:26:32;102552.97;;;-2.70;75.00
6208;BME280;3137;51.550;7.060;2023-03-01T03:28:59;102553.84;;;-2.70;75.20
6208;BME280;3137;51.550;7.060;2023-03-01T03:31:25;102559.91;;;-2.74;75.10
6208;BME280;3137;51.550;7.060;2023-03-01T03:33:52;102557.25;;;-2.75;75.37
6208;BME280;3137;51.550;7.060;2023-03-01T03:36:21;102550.38;;;-2.70;74.52
6208;BME280;3137;51.550;7.060;2023-03-01T03:38:47;102551.16;;;-2.74;74.93
6208;BME280;3137;51.550;7.060;2023-03-01T03:41:16;102548.53;;;-2.76;75.46
6208;BME280;3137;51.550;7.060;2023-03-01T03:43:42;102538.91;;;-2.77;75.49
6208;BME280;3137;51.550;7.060;2023-03-01T03:46:10;102543.25;;;-2.79;74.68
6208;BME280;3137;51.550;7.060;2023-03-01T03:48:40;102541.50;;;-2.79;75.55
6208;BME280;3137;51.550;7.060;2023-03-01T03:51:10;102538.81;;;-2.83;74.62
6208;BME280;3137;51.550;7.060;2023-03-01T03:53:36;102528.34;;;-2.83;74.98
6208;BME280;3137;51.550;7.060;2023-03-01T03:56:03;102524.88;;;-2.81;75.20
6208;BME280;3137;51.550;7.060;2023-03-01T03:58:31;102532.69;;;-2.84;75.81
6208;BME280;3137;51.550;7.060;2023-03-01T04:00:59;102526.53;;;-2.89;75.29
6208;BME280;3137;51.550;7.060;2023-03-01T04:03:28;102519.44;;;-2.96;75.29
6208;BME280;3137;51.550;7.060;2023-03-01T04:05:57;102531.59;;;-3.00;75.69
6208;BME280;3137;51.550;7.060;2023-03-01T04:08:24;102519.50;;;-2.91;75.49
6208;BME280;3137;51.550;7.060;2023-03-01T04:10:52;102515.00;;;-3.02;75.67
6208;BME280;3137;51.550;7.060;2023-03-01T04:13:22;102514.06;;;-3.05;75.40
6208;BME280;3137;51.550;7.060;2023-03-01T04:15:52;102520.19;;;-3.05;75.35
6208;BME280;3137;51.550;7.060;2023-03-01T04:18:20;102514.97;;;-3.03;75.95
6208;BME280;3137;51.550;7.060;2023-03-01T04:20:47;102528.16;;;-2.98;75.86
6208;BME280;3137;51.550;7.060;2023-03-01T04:23:16;102520.25;;;-3.02;76.24
6208;BME280;3137;51.550;7.060;2023-03-01T04:25:48;102520.25;;;-3.02;76.50
6208;BME280;3137;51.550;7.060;2023-03-01T04:28:31;102514.06;;;-3.05;74.77
6208;BME280;3137;51.550;7.060;2023-03-01T04:31:06;102519.25;;;-3.10;75.37
6208;BME280;3137;51.550;7.060;2023-03-01T04:33:51;102520.09;;;-3.12;74.73
6208;BME280;3137;51.550;7.060;2023-03-01T04:36:19;102519.28;;;-3.08;75.71
6208;BME280;3137;51.550;7.060;2023-03-01T04:38:46;102516.53;;;-3.17;75.28
6208;BME280;3137;51.550;7.060;2023-03-01T04:41:17;102525.19;;;-3.22;75.89
6208;BME280;3137;51.550;7.060;2023-03-01T04:43:44;102520.72;;;-3.29;75.83
6208;BME280;3137;51.550;7.060;2023-03-01T04:46:13;102522.41;;;-3.34;75.19
6208;BME280;3137;51.550;7.060;2023-03-01T04:48:42;102517.13;;;-3.35;75.21
6208;BME280;3137;51.550;7.060;2023-03-01T04:51:09;102507.53;;;-3.36;76.09
6208;BME280;3137;51.550;7.060;2023-03-01T04:53:35;102508.38;;;-3.39;75.94
6208;BME280;3137;51.550;7.060;2023-03-01T04:56:03;102501.34;;;-3.40;75.99
6208;BME280;3137;51.550;7.060;2023-03-01T04:58:29;102507.41;;;-3.44;77.45
6208;BME280;3137;51.550;7.060;2023-03-01T05:00:56;102508.31;;;-3.42;76.90
6208;BME280;3137;51.550;7.060;2023-03-01T05:03:23;102511.72;;;-3.49;76.45
6208;BME280;3137;51.550;7.060;2023-03-01T05:05:50;102513.31;;;-3.57;76.78
6208;BME280;3137;51.550;7.060;2023-03-01T05:08:18;102503.69;;;-3.60;77.07
6208;BME280;3137;51.550;7.060;2023-03-01T05:10:50;102505.31;;;-3.67;76.88
6208;BME280;3137;51.550;7.060;2023-03-01T05:13:17;102503.59;;;-3.66;78.31
6208;BME280;3137;51.550;7.060;2023-03-01T05:15:49;102508.75;;;-3.71;78.40
6208;BME280;3137;51.550;7.060;2023-03-01T05:18:19;102500.97;;;-3.66;78.16
6208;BME280;3137;51.550;7.060;2023-03-01T05:20:45;102499.25;;;-3.64;77.07
6208;BME280;3137;51.550;7.060;2023-03-01T05:23:12;102493.09;;;-3.68;77.63
6208;BME280;3137;51.550;7.060;2023-03-01T05:25:39;102491.38;;;-3.64;78.42
6208;BME280;3137;51.550;7.060;2023-03-01T05:28:10;102500.94;;;-3.68;78.24
6208;BME280;3137;51.550;7.060;2023-03-01T05:30:37;102496.59;;;-3.67;78.98
6208;BME280;3137;51.550;7.060;2023-03-01T05:33:08;102499.31;;;-3.61;78.45
6208;BME280;3137;51.550;7.060;2023-03-01T05:35:44;102495.72;;;-3.68;79.43
6208;BME280;3137;51.550;7.060;2023-03-01T05:38:12;102495.81;;;-3.61;79.33
6208;BME280;3137;51.550;7.060;2023-03-01T05:40:43;102494.97;;;-3.57;79.29
6208;BME280;3137;51.550;7.060;2023-03-01T05:43:11;102493.25;;;-3.57;79.49
6208;BME280;3137;51.550;7.060;2023-03-01T05:45:38;102493.31;;;-3.52;79.61
6208;BME280;3137;51.550;7.060;2023-03-01T05:48:06;102495.03;;;-3.56;79.15
6208;BME280;3137;51.550;7.060;2023-03-01T05:50:36;102495.78;;;-3.63;78.97
6208;BME280;3137;51.550;7.060;2023-03-01T05:53:14;102494.16;;;-3.56;79.01
6208;BME280;3137;51.550;7.060;2023-03-01T05:55:41;102488.03;;;-3.55;78.23
6208;BME280;3137;51.550;7.060;2023-03-01T05:58:14;102495.84;;;-3.58;80.06
6208;BME280;3137;51.550;7.060;2023-03-01T06:00:42;102493.25;;;-3.58;80.30
6208;BME280;3137;51.550;7.060;2023-03-01T06:03:11;102495.84;;;-3.57;78.44
6208;BME280;3137;51.550;7.060;2023-03-01T06:05:38;102495.06;;;-3.54;80.02
6208;BME280;3137;51.550;7.060;2023-03-01T06:08:05;102490.78;;;-3.46;78.76
6208;BME280;3137;51.550;7.060;2023-03-01T06:10:32;102496.06;;;-3.45;79.21
6208;BME280;3137;51.550;7.060;2023-03-01T06:12:58;102484.72;;;-3.44;79.55
6208;BME280;3137;51.550;7.060;2023-03-01T06:15:25;102483.88;;;-3.41;78.49
6208;BME280;3137;51.550;7.060;2023-03-01T06:17:53;102476.97;;;-3.37;78.10
6208;BME280;3137;51.550;7.060;2023-03-01T06:20:26;102476.16;;;-3.32;78.30
6208;BME280;3137;51.550;7.060;2023-03-01T06:22:53;102479.66;;;-3.31;78.15
6208;BME280;3137;51.550;7.060;2023-03-01T06:25:22;102472.59;;;-3.37;77.88
6208;BME280;3137;51.550;7.060;2023-03-01T06:27:48;102477.03;;;-3.31;79.25
6208;BME280;3137;51.550;7.060;2023-03-01T06:30:17;102482.25;;;-3.33;78.98
6208;BME280;3137;51.550;7.060;2023-03-01T06:32:44;102473.56;;;-3.29;78.26
6208;BME280;3137;51.550;7.060;2023-03-01T06:35:12;102477.13;;;-3.25;77.68
6208;BME280;3137;51.550;7.060;2023-03-01T06:37:40;102475.34;;;-3.26;79.26
6208;BME280;3137;51.550;7.060;2023-03-01T06:40:07;102473.69;;;-3.19;78.89
6208;BME280;3137;51.550;7.060;2023-03-01T06:42:35;102480.69;;;-3.18;77.48
6208;BME280;3137;51.550;7.060;2023-03-01T06:45:02;102489.31;;;-3.26;79.00
6208;BME280;3137;51.550;7.060;2023-03-01T06:47:29;102484.19;;;-3.19;77.95
6208;BME280;3137;51.550;7.060;2023-03-01T06:49:55;102486.84;;;-3.18;78.53
6208;BME280;3137;51.550;7.060;2023-03-01T06:52:21;102486.94;;;-3.10;78.71
6208;BME280;3137;51.550;7.060;2023-03-01T06:54:48;102493.09;;;-3.05;78.46
6208;BME280;3137;51.550;7.060;2023-03-01T06:57:14;102486.19;;;-3.00;79.10
6208;BME280;3137;51.550;7.060;2023-03-01T06:59:41;102481.94;;;-2.90;78.96
6208;BME280;3137;51.550;7.060;2023-03-01T07:02:10;102491.69;;;-2.80;77.90
6208;BME280;3137;51.550;7.060;2023-03-01T07:04:37;102487.31;;;-2.78;77.34
6208;BME280;3137;51.550;7.060;2023-03-01T07:07:03;102483.03;;;-2.71;78.16
6208;BME280;3137;51.550;7.060;2023-03-01T07:09:30;102489.19;;;-2.66;77.26
6208;BME280;3137;51.550;7.060;2023-03-01T07:11:57;102477.06;;;-2.57;77.30
6208;BME280;3137;51.550;7.060;2023-03-01T07:14:24;102474.56;;;-2.47;76.93
6208;BME280;3137;51.550;7.060;2023-03-01T07:16:54;102479.03;;;-2.39;76.44
6208;BME280;3137;51.550;7.060;2023-03-01T07:19:21;102483.47;;;-2.30;77.05
6208;BME280;3137;51.550;7.060;2023-03-01T07:21:48;102476.59;;;-2.20;76.37
6208;BME280;3137;51.550;7.060;2023-03-01T07:24:15;102471.34;;;-2.19;75.97
6208;BME280;3137;51.550;7.060;2023-03-01T07:26:41;102469.69;;;-2.10;75.02
6208;BME280;3137;51.550;7.060;2023-03-01T07:29:09;102468.84;;;-2.05;74.41
6208;BME280;3137;51.550;7.060;2023-03-01T07:31:36;102465.44;;;-1.93;74.39
6208;BME280;3137;51.550;7.060;2023-03-01T07:34:02;102472.41;;;-1.97;74.54
6208;BME280;3137;51.550;7.060;2023-03-01T07:36:29;102470.72;;;-1.87;74.59
6208;BME280;3137;51.550;7.060;2023-03-01T07:38:56;102462.94;;;-1.76;74.21
6208;BME280;3137;51.550;7.060;2023-03-01T07:41:22;102474.38;;;-1.68;73.52
6208;BME280;3137;51.550;7.060;2023-03-01T07:43:49;102468.31;;;-1.62;72.70
6208;BME280;3137;51.550;7.060;2023-03-01T07:46:15;102470.06;;;-1.58;72.75
6208;BME280;3137;51.550;7.060;2023-03-01T07:48:42;102468.41;;;-1.45;72.48
6208;BME280;3137;51.550;7.060;2023-03-01T07:51:09;102459.69;;;-1.35;72.19
6208;BME280;3137;51.550;7.060;2023-03-01T07:53:35;102463.22;;;-1.30;71.92
6208;BME280;3137;51.550;7.060;2023-03-01T07:56:09;102469.38;;;-1.25;71.69
6208;BME280;3137;51.550;7.060;2023-03-01T07:58:38;102465.03;;;-1.23;71.64
6208;BME280;3137;51.550;7.060;2023-03-01T08:01:07;102469.41;;;-1.20;71.38
6208;BME280;3137;51.550;7.060;2023-03-01T08:03:34;102466.84;;;-1.07;70.68
6208;BME280;3137;51.550;7.060;2023-03-01T08:06:02;102468.63;;;-0.99;70.25
6208;BME280;3137;51.550;7.060;2023-03-01T08:08:29;102459.00;;;-0.94;70.35
6208;BME280;3137;51.550;7.060;2023-03-01T08:10:59;102466.06;;;-0.82;69.69
6208;BME280;3137;51.550;7.060;2023-03-01T08:13:26;102464.34;;;-0.74;69.77
6208;BME280;3137;51.550;7.060;2023-03-01T08:15:53;102462.59;;;-0.68;68.37
6208;BME280;3137;51.550;7.060;2023-03-01T08:18:20;102462.66;;;-0.54;68.23
6208;BME280;3137;51.550;7.060;2023-03-01T08:20:47;102469.66;;;-0.53;68.42
6208;BME280;3137;51.550;7.060;2023-03-01T08:23:13;102465.28;;;-0.49;67.92
6208;BME280;3137;51.550;7.060;2023-03-01T08:25:40;102461.81;;;-0.36;67.99
6208;BME280;3137;51.550;7.060;2023-03-01T08:28:06;102458.31;;;-0.30;67.57
6208;BME280;3137;51.550;7.060;2023-03-01T08:30:33;102456.56;;;-0.25;67.16
6208;BME280;3137;51.550;7.060;2023-03-01T08:33:00;102453.03;;;-0.15;66.32
6208;BME280;3137;51.550;7.060;2023-03-01T08:35:27;102458.31;;;-0.06;66.20
6208;BME280;3137;51.550;7.060;2023-03-01T08:37:53;102456.56;;;0.06;66.33
6208;BME280;3137;51.550;7.060;2023-03-01T08:40:19;102452.19;;;0.06;64.92
6208;BME280;3137;51.550;7.060;2023-03-01T08:42:46;102452.19;;;0.17;64.94
6208;BME280;3137;51.550;7.060;2023-03-01T08:45:12;102454.78;;;0.31;65.19
6208;BME280;3137;51.550;7.060;2023-03-01T08:47:40;102450.38;;;0.48;64.41
6208;BME280;3137;51.550;7.060;2023-03-01T08:50:07;102440.69;;;0.52;64.37
6208;BME280;3137;51.550;7.060;2023-03-01T08:52:33;102441.56;;;0.68;64.94
6208;BME280;3137;51.550;7.060;2023-03-01T08:55:00;102439.72;;;0.85;63.67
6208;BME280;3137;51.550;7.060;2023-03-01T08:57:27;102442.25;;;1.10;63.91
6208;BME280;3137;51.550;7.060;2023-03-01T08:59:54;102437.75;;;1.28;62.50
6208;BME280;3137;51.550;7.060;2023-03-01T09:02:22;102429.69;;;1.55;61.73
6208;BME280;3137;51.550;7.060;2023-03-01T09:04:48;102433.13;;;1.66;61.71
6208;BME280;3137;51.550;7.060;2023-03-01T09:07:15;102425.16;;;1.74;61.28
6208;BME280;3137;51.550;7.060;2023-03-01T09:09:41;102429.41;;;1.93;59.65
6208;BME280;3137;51.550;7.060;2023-03-01T09:12:08;102432.97;;;1.86;59.52
6208;BME280;3137;51.550;7.060;2023-03-01T09:14:34;102424.06;;;1.98;59.11
6208;BME280;3137;51.550;7.060;2023-03-01T09:17:03;102429.31;;;2.01;58.87
6208;BME280;3137;51.550;7.060;2023-03-01T09:19:29;102424.00;;;2.07;59.13
6208;BME280;3137;51.550;7.060;2023-03-01T09:21:56;102430.06;;;2.15;58.93
6208;BME280;3137;51.550;7.060;2023-03-01T09:24:24;102426.47;;;2.25;58.48
6208;BME280;3137;51.550;7.060;2023-03-01T09:26:54;102415.78;;;2.34;58.36
6208;BME280;3137;51.550;7.060;2023-03-01T09:29:22;102415.00;;;2.26;57.50
6208;BME280;3137;51.550;7.060;2023-03-01T09:31:49;102415.59;;;2.54;56.83
6208;BME280;3137;51.550;7.060;2023-03-01T09:34:15;102416.31;;;2.66;57.11
6208;BME280;3137;51.550;7.060;2023-03-01T09:36:50;102417.28;;;2.60;56.42
6208;BME280;3137;51.550;7.060;2023-03-01T09:39:17;102417.31;;;2.59;56.29
6208;BME280;3137;51.550;7.060;2023-03-01T09:41:46;102408.19;;;2.84;57.00
6208;BME280;3137;51.550;7.060;2023-03-01T09:46:45;102399.22;;;2.97;55.39
6208;BME280;3137;51.550;7.060;2023-03-01T09:49:17;102394.53;;;3.16;55.04
6208;BME280;3137;51.550;7.060;2023-03-01T09:54:25;102395.34;;;3.22;52.47
6208;BME280;3137;51.550;7.060;2023-03-01T09:57:09;102398.16;;;3.09;52.59
6208;BME280;3137;51.550;7.060;2023-03-01T09:59:59;102394.50;;;3.18;53.09
6208;BME280;3137;51.550;7.060;2023-03-01T10:02:41;102395.88;;;3.45;54.31
6208;BME280;3137;51.550;7.060;2023-03-01T10:05:31;102403.47;;;3.68;52.25
6208;BME280;3137;51.550;7.060;2023-03-01T10:08:02;102394.72;;;3.61;51.58
6208;BME280;3137;51.550;7.060;2023-03-01T10:10:37;102398.13;;;3.71;51.45
6208;BME280;3137;51.550;7.060;2023-03-01T10:13:21;102389.91;;;3.87;51.14
6208;BME280;3137;51.550;7.060;2023-03-01T10:15:54;102387.28;;;3.85;50.86
6208;BME280;3137;51.550;7.060;2023-03-01T10:18:29;102375.16;;;3.70;50.90
6208;BME280;3137;51.550;7.060;2023-03-01T10:21:00;102377.75;;;3.75;49.94
6208;BME280;3137;51.550;7.060;2023-03-01T10:23:29;102381.19;;;3.80;50.39
6208;BME280;3137;51.550;7.060;2023-03-01T10:31:27;102362.38;;;3.95;50.13
6208;BME280;3137;51.550;7.060;2023-03-01T10:34:29;102355.00;;;4.11;48.74
6208;BME280;3137;51.550;7.060;2023-03-01T10:36:59;102350.50;;;4.16;48.70
6208;BME280;3137;51.550;7.060;2023-03-01T10:39:27;102359.91;;;4.33;48.30
6208;BME280;3137;51.550;7.060;2023-03-01T10:41:56;102359.13;;;4.28;48.41
6208;BME280;3137;51.550;7.060;2023-03-01T10:44:47;102353.16;;;4.61;48.05
6208;BME280;3137;51.550;7.060;2023-03-01T10:47:22;102360.66;;;4.39;47.78
6208;BME280;3137;51.550;7.060;2023-03-01T10:50:00;102352.41;;;4.55;47.37
6208;BME280;3137;51.550;7.060;2023-03-01T10:52:32;102348.94;;;4.51;48.03
6208;BME280;3137;51.550;7.060;2023-03-01T10:55:03;102350.69;;;4.52;47.30
6208;BME280;3137;51.550;7.060;2023-03-01T10:57:32;102324.91;;;4.57;46.69
6208;BME280;3137;51.550;7.060;2023-03-01T11:00:20;102320.25;;;4.70;47.44
6208;BME280;3137;51.550;7.060;2023-03-01T11:05:26;102324.72;;;4.68;45.98
6208;BME280;3137;51.550;7.060;2023-03-01T11:07:56;102324.63;;;4.73;46.12
6208;BME280;3137;51.550;7.060;2023-03-01T11:10:28;102318.28;;;4.80;45.42
6208;BME280;3137;51.550;7.060;2023-03-01T11:13:18;102325.03;;;4.93;46.16
6208;BME280;3137;51.550;7.060;2023-03-01T11:15:59;102306.31;;;4.99;45.45
6208;BME280;3137;51.550;7.060;2023-03-01T11:18:26;102310.84;;;4.96;46.20
6208;BME280;3137;51.550;7.060;2023-03-01T11:21:12;102304.09;;;5.20;45.37
6208;BME280;3137;51.550;7.060;2023-03-01T11:23:39;102298.78;;;5.20;46.13
6208;BME280;3137;51.550;7.060;2023-03-01T11:26:08;102290.44;;;5.35;47.05
6208;BME280;3137;51.550;7.060;2023-03-01T11:28:39;102294.00;;;5.34;44.99
6208;BME280;3137;51.550;7.060;2023-03-01T11:31:08;102287.84;;;5.32;44.35
6208;BME280;3137;51.550;7.060;2023-03-01T11:33:44;102288.09;;;5.57;44.85
6208;BME280;3137;51.550;7.060;2023-03-01T11:38:56;102285.09;;;5.71;43.21
6208;BME280;3137;51.550;7.060;2023-03-01T11:41:30;102295.06;;;5.63;43.68
6208;BME280;3137;51.550;7.060;2023-03-01T11:44:03;102300.19;;;5.69;44.06
6208;BME280;3137;51.550;7.060;2023-03-01T11:49:59;102282.25;;;6.11;43.36
6208;BME280;3137;51.550;7.060;2023-03-01T12:03:06;102276.91;;;6.43;42.38
6208;BME280;3137;51.550;7.060;2023-03-01T12:05:52;102272.31;;;6.48;41.60
6208;BME280;3137;51.550;7.060;2023-03-01T12:08:33;102272.50;;;6.71;41.31
6208;BME280;3137;51.550;7.060;2023-03-01T12:14:37;102267.91;;;6.76;40.34
6208;BME280;3137;51.550;7.060;2023-03-01T12:17:19;102269.91;;;6.98;40.67
6208;BME280;3137;51.550;7.060;2023-03-01T12:20:20;102259.34;;;6.95;41.56
6208;BME280;3137;51.550;7.060;2023-03-01T12:28:51;102243.72;;;7.11;40.63
6208;BME280;3137;51.550;7.060;2023-03-01T12:31:49;102248.91;;;7.15;39.93
6208;BME280;3137;51.550;7.060;2023-03-01T12:35:05;102240.03;;;6.88;39.68
6208;BME280;3137;51.550;7.060;2023-03-01T12:46:27;102229.41;;;6.87;40.42
6208;BME280;3137;51.550;7.060;2023-03-01T12:49:20;102226.69;;;7.16;39.33
6208;BME280;3137;51.550;7.060;2023-03-01T12:52:18;102222.91;;;7.23;40.03
6208;BME280;3137;51.550;7.060;2023-03-01T12:54:47;102220.72;;;7.35;39.02
6208;BME280;3137;51.550;7.060;2023-03-01T12:57:21;102220.06;;;7.28;38.91
6208;BME280;3137;51.550;7.060;2023-03-01T13:00:16;102224.44;;;7.04;39.45
6208;BME280;3137;51.550;7.060;2023-03-01T13:02:55;102226.72;;;6.88;39.91
6208;BME280;3137;51.550;7.060;2023-03-01T13:08:33;102211.00;;;6.80;40.76
6208;BME280;3137;51.550;7.060;2023-03-01T13:11:05;102212.25;;;6.97;40.16
6208;BME280;3137;51.550;7.060;2023-03-01T13:13:33;102217.94;;;6.85;40.46
6208;BME280;3137;51.550;7.060;2023-03-01T13:19:21;102213.97;;;6.70;40.68
6208;BME280;3137;51.550;7.060;2023-03-01T13:21:49;102208.66;;;6.70;39.61
6208;BME280;3137;51.550;7.060;2023-03-01T13:24:39;102202.16;;;6.50;40.24
6208;BME280;3137;51.550;7.060;2023-03-01T13:32:34;102183.25;;;7.14;39.88
6208;BME280;3137;51.550;7.060;2023-03-01T13:37:46;102183.59;;;7.55;39.05
6208;BME280;3137;51.550;7.060;2023-03-01T13:42:45;102183.91;;;6.94;39.79
6208;BME280;3137;51.550;7.060;2023-03-01T13:45:42;102187.78;;;6.84;40.69
6208;BME280;3137;51.550;7.060;2023-03-01T13:48:20;102171.66;;;7.15;40.57
6208;BME280;3137;51.550;7.060;2023-03-01T13:50:52;102167.66;;;7.29;40.13
6208;BME280;3137;51.550;7.060;2023-03-01T13:53:26;102169.28;;;7.33;40.11
6208;BME280;3137;51.550;7.060;2023-03-01T13:58:33;102165.13;;;7.24;39.42
6208;BME280;3137;51.550;7.060;2023-03-01T14:01:28;102153.16;;;7.11;39.39
6208;BME280;3137;51.550;7.060;2023-03-01T14:03:56;102153.06;;;7.14;40.23
6208;BME280;3137;51.550;7.060;2023-03-01T14:06:31;102155.06;;;7.07;40.55
6208;BME280;3137;51.550;7.060;2023-03-01T14:11:56;102147.00;;;6.82;40.94
6208;BME280;3137;51.550;7.060;2023-03-01T14:14:43;102142.06;;;6.71;42.27
6208;BME280;3137;51.550;7.060;2023-03-01T14:17:21;102128.59;;;6.76;41.84
6208;BME280;3137;51.550;7.060;2023-03-01T14:19:56;102137.22;;;6.56;41.76
6208;BME280;3137;51.550;7.060;2023-03-01T14:22:27;102131.41;;;6.43;42.63
6208;BME280;3137;51.550;7.060;2023-03-01T14:24:59;102135.16;;;6.37;42.23
6208;BME280;3137;51.550;7.060;2023-03-01T14:27:35;102130.72;;;6.38;42.49
6208;BME280;3137;51.550;7.060;2023-03-01T14:32:36;102120.31;;;6.58;41.78
6208;BME280;3137;51.550;7.060;2023-03-01T14:35:27;102119.53;;;6.55;42.85
6208;BME280;3137;51.550;7.060;2023-03-01T14:37:54;102113.38;;;6.53;41.39
6208;BME280;3137;51.550;7.060;2023-03-01T14:40:24;102109.41;;;6.66;41.38
6208;BME280;3137;51.550;7.060;2023-03-01T14:42:52;102100.22;;;6.75;41.78
6208;BME280;3137;51.550;7.060;2023-03-01T14:45:19;102102.84;;;6.76;41.70
6208;BME280;3137;51.550;7.060;2023-03-01T14:47:46;102105.28;;;6.56;41.69
6208;BME280;3137;51.550;7.060;2023-03-01T14:50:26;102104.25;;;6.33;42.46
6208;BME280;3137;51.550;7.060;2023-03-01T14:52:56;102099.63;;;6.38;42.30
6208;BME280;3137;51.550;7.060;2023-03-01T14:55:34;102098.88;;;6.35;41.68
6208;BME280;3137;51.550;7.060;2023-03-01T14:58:04;102096.16;;;6.36;41.51